createdAt,value
2023-10-05T00:00:33.657Z,46
2023-10-05T00:15:33.632Z,46
2023-10-05T00:30:33.858Z,45
2023-10-05T00:45:33.773Z,45
2023-10-05T01:00:33.378Z,45
2023-10-05T01:15:32.965Z,45
2023-10-05T01:30:33.684Z,45
2023-10-05T01:45:33.922Z,45
2023-10-05T02:00:33.105Z,44
2023-10-05T02:15:33.761Z,44
2023-10-05T02:30:34.189Z,44
2023-10-05T02:45:32.503Z,44
2023-10-05T03:00:32.904Z,44
2023-10-05T03:15:32.879Z,44
2023-10-05T03:30:33.302Z,44
2023-10-05T03:45:32.587Z,44
2023-10-05T04:00:33.642Z,44
2023-10-05T04:15:33.279Z,44
2023-10-05T04:30:32.797Z,44
2023-10-05T04:45:32.958Z,44
2023-10-05T05:00:33.705Z,44
2023-10-05T05:15:33.686Z,44
2023-10-05T05:30:32.933Z,44
2023-10-05T05:45:33.563Z,44
2023-10-05T06:00:33.327Z,44
2023-10-05T06:15:33.157Z,44
2023-10-05T06:30:37.103Z,44
2023-10-05T06:45:35.018Z,44
2023-10-05T07:00:32.726Z,44
2023-10-05T07:15:33.468Z,45
2023-10-05T07:30:32.776Z,46
2023-10-05T07:45:32.756Z,47
2023-10-05T08:00:33.801Z,47
2023-10-05T08:15:33.397Z,47
2023-10-05T08:30:33.506Z,48
2023-10-05T08:45:32.828Z,48
2023-10-05T09:00:33.532Z,49
2023-10-05T09:15:33.100Z,49
2023-10-05T09:30:33.499Z,49
2023-10-05T09:45:32.968Z,50
2023-10-05T10:00:33.199Z,50
2023-10-05T10:15:33.398Z,50
2023-10-05T10:30:33.692Z,50
2023-10-05T10:45:33.750Z,49
2023-10-05T11:00:33.447Z,49
2023-10-05T11:15:33.099Z,49
2023-10-05T11:31:05.363Z,49
2023-10-05T11:45:33.854Z,49
2023-10-05T12:00:33.053Z,49
2023-10-05T12:15:33.039Z,48
2023-10-05T12:30:33.607Z,49
2023-10-05T12:45:33.021Z,49
2023-10-05T13:00:33.785Z,49
2023-10-05T13:15:32.800Z,49
2023-10-05T13:30:33.410Z,49
2023-10-05T13:45:32.962Z,49
2023-10-05T14:00:33.283Z,48
2023-10-05T14:15:33.530Z,48
2023-10-05T14:30:33.122Z,48
2023-10-05T14:45:33.313Z,48
2023-10-05T15:00:33.011Z,48
2023-10-05T15:15:33.409Z,48
2023-10-05T15:30:33.592Z,48
2023-10-05T15:45:33.561Z,48
2023-10-05T16:00:33.831Z,49
2023-10-05T16:15:33.796Z,49
2023-10-05T16:30:33.581Z,49
2023-10-05T16:45:33.197Z,49
2023-10-05T17:00:33.709Z,49
2023-10-05T17:15:33.135Z,50
2023-10-05T17:30:32.900Z,50
2023-10-05T17:45:33.546Z,50
2023-10-05T18:00:32.952Z,50
2023-10-05T18:15:33.367Z,50
2023-10-05T18:30:33.047Z,51
2023-10-05T18:45:33.836Z,51
2023-10-05T19:00:33.242Z,51
2023-10-05T19:15:32.794Z,51
2023-10-05T19:30:33.005Z,51
2023-10-05T19:45:33.251Z,51
2023-10-05T20:00:33.393Z,51
2023-10-05T20:15:33.113Z,51
2023-10-05T20:30:33.347Z,51
2023-10-05T20:45:33.460Z,51
2023-10-05T21:00:33.559Z,51
2023-10-05T21:15:32.952Z,50
2023-10-05T21:30:32.926Z,50
2023-10-05T21:45:32.737Z,50
2023-10-05T22:00:33.840Z,50
2023-10-05T22:15:32.978Z,49
2023-10-05T22:30:32.977Z,49
2023-10-05T22:45:33.327Z,49
2023-10-05T23:00:33.685Z,48
2023-10-05T23:15:33.031Z,48
2023-10-05T23:30:33.533Z,48
2023-10-05T23:45:33.076Z,47
